Latest Weather Observations for Giles*

IDW60801

Issued at 4:43 am WST Tuesday 7 December 2021 (issued every 10 minutes, with the page automatically refreshed every 10 minutes)

About weather observations | Map of weather stations | Latest weather observations for WA | Other Formats
Station Details ID: 013017 Name: GILES METEOROLOGICAL OFFICE Lat: -25.03 Lon: 128.30 Height: 598.0 m
Data from the previous 72 hours. | See also: Recent months at Giles*

* Giles observations are collected in the South Australia time zone, which includes daylight saving in the summer period. Therefore, Rain since 9am value is with respect to South Australia local time.

Date/Time
WST
Temp
°C
App
Temp
°C
Dew
Point
°C
Rel
Hum
%
Delta-T
°C
Wind Press
QNH
hPa
Press
MSL
hPa
Rain since
9am
mm
Dir  Spd
km/h
Gust
km/h
Spd
kts
Gust
kts
07/04:30am 23.6 19.9 10.3 43 7.5 SE 20 26 11 14 1013.4 1008.9 0.0
07/04:00am 23.8 20.4 10.5 43 7.6 ESE 19 26 10 14 1013.2 1008.7 0.0
07/03:30am 24.3 20.7 10.6 42 7.8 ESE 20 30 11 16 1013.1 1008.6 0.0
07/03:00am 24.9 20.1 10.4 40 8.3 ESE 26 35 14 19 1012.8 1008.2 0.0
07/02:30am 25.0 20.3 10.5 40 8.3 ESE 26 35 14 19 1012.4 1007.8 0.0
07/02:00am 25.0 20.3 10.5 40 8.3 SE 26 37 14 20 1012.3 1007.7 0.0
07/01:30am 25.3 20.5 10.4 39 8.5 SE 26 33 14 18 1012.1 1007.5 0.0
07/01:00am 25.7 20.5 10.3 38 8.8 SE 28 35 15 19 1011.8 1007.3 0.0
07/12:30am 26.3 20.1 10.0 36 9.3 SE 33 44 18 24 1011.7 1007.2 0.0
07/12:00am 26.5 21.1 9.4 34 9.7 SE 28 41 15 22 1011.4 1006.8 0.0
 
Date/Time
WST
Temp
°C
App
Temp
°C
Dew
Point
°C
Rel
Hum
%
Delta-T
°C
Wind Press
QNH
hPa
Press
MSL
hPa
Rain since
9am
mm
Dir  Spd
km/h
Gust
km/h
Spd
kts
Gust
kts
06/11:30pm 26.8 21.2 8.7 32 10.1 SSE 28 39 15 21 1011.3 1006.7 0.0
06/11:00pm 27.5 23.5 8.9 31 10.5 SE 20 32 11 17 1011.5 1006.9 0.0
06/10:30pm 27.5 23.9 8.4 30 10.7 SSE 17 22 9 12 1011.7 1007.2 0.0
06/10:00pm 28.4 24.2 8.1 28 11.3 SSE 20 30 11 16 1011.6 1007.1 0.0
06/09:30pm 29.0 24.4 8.1 27 11.7 SSE 22 32 12 17 1011.6 1007.1 0.0
06/09:00pm 29.3 24.9 7.2 25 12.2 SSE 20 28 11 15 1011.3 1006.7 0.0
06/08:30pm 29.5 25.2 6.8 24 12.5 SSE 19 22 10 12 1010.8 1006.2 0.0
06/08:00pm 29.7 25.6 6.4 23 12.8 SE 17 20 9 11 1010.5 1005.9 0.0
06/07:30pm 29.7 25.9 5.7 22 13.0 SE 15 19 8 10 1010.0 1005.4 0.0
06/07:00pm 30.0 26.6 6.0 22 13.1 SE 13 15 7 8 1009.6 1005.0 0.0
06/06:30pm 31.5 28.8 5.8 20 14.1 SE 9 11 5 6 1009.2 1004.6 0.0
06/06:00pm 33.5 29.8 4.2 16 15.8 SE 13 19 7 10 1008.9 1004.3 0.0
06/05:30pm 34.8 31.3 5.3 16 16.3 SE 13 17 7 9 1008.6 1004.0 0.0
06/05:00pm 35.6 32.2 5.9 16 16.6 SSW 13 20 7 11 1008.3 1003.7 0.0
06/04:30pm 36.4 33.3 5.6 15 17.2 SSW 11 20 6 11 1008.1 1003.5 0.0
06/04:00pm 36.0 33.2 5.3 15 17.1 SSW 9 19 5 10 1008.2 1003.6 0.0
06/03:30pm 35.4 32.4 5.8 16 16.5 SW 11 17 6 9 1008.2 1003.6 0.0
06/03:00pm 35.8 31.3 6.1 16 16.7 SW 19 28 10 15 1008.5 1003.8 0.0
06/02:30pm 36.2 33.5 5.5 15 17.1 NW 9 17 5 9 1008.7 1004.1 0.0
06/02:00pm 35.5 32.1 5.8 16 16.6 W 13 20 7 11 1009.0 1004.4 0.0
06/01:30pm 35.8 32.1 6.1 16 16.7 W 15 30 8 16 1009.2 1004.6 0.0
06/01:00pm 35.1 31.8 6.4 17 16.1 WSW 13 26 7 14 1009.6 1005.0 0.0
06/12:30pm 34.6 31.6 7.6 19 15.4 NW 13 26 7 14 1009.8 1005.2 0.0
06/12:00pm 34.2 31.1 7.3 19 15.3 W 13 26 7 14 1010.2 1005.6 0.0
06/11:30am 33.6 30.7 8.3 21 14.5 N 13 24 7 13 1010.6 1006.0 0.0
06/11:00am 33.1 29.5 8.5 22 14.2 N 17 22 9 12 1011.0 1006.4 0.0
06/10:30am 33.2 30.2 9.3 23 13.9 NNW 15 30 8 16 1011.3 1006.7 0.0
06/10:00am 32.1 28.7 9.0 24 13.3 N 17 28 9 15 1011.6 1007.1 0.0
06/09:30am 31.4 27.6 9.0 25 12.9 N 19 28 10 15 1012.0 1007.4 0.0
06/09:00am 31.5 27.5 9.1 25 12.9 NNE 20 30 11 16 1012.0 1007.4 0.0
06/08:30am 29.7 24.6 9.3 28 11.7 NNE 26 35 14 19 1012.4 1007.8 0.0
06/08:00am 29.8 26.7 8.8 27 11.9 NNE 15 24 8 13 1012.6 1008.0 0.0
06/07:30am 28.2 25.9 9.0 30 10.9 E 11 15 6 8 1012.7 1008.1 0.0
06/07:00am 26.8 24.0 8.7 32 10.1 E 13 17 7 9 1012.9 1008.3 0.0
06/06:30am 25.6 23.2 8.6 34 9.4 E 11 17 6 9 1012.8 1008.2 0.0
06/06:00am 24.4 21.6 8.4 36 8.8 E 13 17 7 9 1012.8 1008.2 0.0
06/05:30am 22.8 20.1 8.9 41 7.6 E 13 19 7 10 1012.5 1007.9 0.0
06/05:00am 22.0 19.3 8.9 43 7.2 E 13 19 7 10 1012.2 1007.6 0.0
06/04:30am 21.8 17.8 9.0 44 7.0 ENE 20 30 11 16 1011.2 1006.6 0.0
06/04:00am 20.9 18.3 9.2 47 6.4 E 13 17 7 9 1011.0 1006.4 0.0
06/03:30am 21.6 17.8 9.2 45 6.8 E 19 26 10 14 1010.7 1006.1 0.0
06/03:00am 21.1 18.9 9.4 47 6.4 E 11 17 6 9 1010.9 1006.3 0.0
06/02:30am 22.2 19.9 9.0 43 7.2 ENE 11 17 6 9 1010.6 1006.0 0.0
06/02:00am 23.4 19.6 9.0 40 8.0 ENE 19 24 10 13 1010.3 1005.7 0.0
06/01:30am 23.5 20.4 8.8 39 8.1 E 15 19 8 10 1010.5 1005.9 0.0
06/01:00am 23.7 20.2 8.9 39 8.2 E 17 20 9 11 1010.5 1005.9 0.0
06/12:30am 23.5 20.1 9.1 40 8.0 E 17 22 9 12 1010.6 1006.0 0.0
06/12:00am 23.5 20.6 9.5 41 7.8 E 15 19 8 10 1010.8 1006.2 0.0
 
Date/Time
WST
Temp
°C
App
Temp
°C
Dew
Point
°C
Rel
Hum
%
Delta-T
°C
Wind Press
QNH
hPa
Press
MSL
hPa
Rain since
9am
mm
Dir  Spd
km/h
Gust
km/h
Spd
kts
Gust
kts
05/11:30pm 23.1 21.3 9.5 42 7.6 E 9 13 5 7 1010.9 1006.3 0.0
05/11:00pm 23.9 21.8 9.9 41 7.9 E 11 15 6 8 1011.1 1006.5 0.0
05/10:30pm 24.3 21.4 9.8 40 8.2 E 15 19 8 10 1011.4 1006.8 0.0
05/10:00pm 25.3 22.8 9.6 37 8.9 E 13 20 7 11 1011.5 1006.9 0.0
05/09:30pm 25.6 25.2 9.8 37 9.0 NE 2 7 1 4 1011.3 1006.7 0.0
05/09:00pm 26.0 23.9 9.8 36 9.2 NE 11 13 6 7 1011.0 1006.4 0.0
05/08:30pm 28.3 26.4 9.1 30 10.9 NE 9 13 5 7 1010.8 1006.2 0.0
05/08:00pm 29.2 26.5 8.8 28 11.6 NE 13 15 7 8 1010.5 1005.9 0.0
05/07:30pm 29.3 27.7 8.9 28 11.6 NNE 7 9 4 5 1010.2 1005.6 0.0
05/07:00pm 30.2 27.8 8.6 26 12.3 NNE 11 17 6 9 1010.0 1005.4 0.0
05/06:30pm 31.1 28.7 8.8 25 12.8 NE 11 17 6 9 1009.8 1005.2 0.0
05/06:00pm 31.8 29.0 8.7 24 13.3 NE 13 17 7 9 1009.5 1004.9 0.0
05/05:30pm 33.0 29.8 8.5 22 14.1 NNE 15 20 8 11 1009.3 1004.7 0.0
05/05:00pm 34.0 32.2 7.9 20 14.9 NNE 7 13 4 7 1009.2 1004.6 0.0
05/04:30pm 34.5 31.8 7.5 19 15.4 NNW 11 17 6 9 1009.2 1004.6 0.0
05/04:00pm 35.3 32.4 8.2 19 15.7 NNW 13 24 7 13 1009.2 1004.6 0.0
05/03:30pm 35.3 31.1 7.4 18 15.9 NNW 19 26 10 14 1009.4 1004.8 0.0
05/03:00pm 34.9 32.7 7.9 19 15.5 NNE 9 17 5 9 1009.5 1004.9 0.0
05/02:30pm 35.8 33.8 8.6 19 15.8 NNE 9 24 5 13 1009.6 1005.0 0.0
05/02:00pm 34.2 32.0 8.0 20 15.0 ENE 9 19 5 10 1010.3 1005.7 0.0
05/01:30pm 33.6 30.2 7.6 20 14.8 N 15 26 8 14 1010.9 1006.3 0.0
05/01:00pm 33.1 29.1 9.2 23 13.9 NE 20 26 11 14 1011.6 1007.1 0.0
05/12:30pm 33.0 29.0 9.1 23 13.9 NNE 20 35 11 19 1012.6 1008.0 0.0
05/12:00pm 31.7 27.8 8.7 24 13.2 NNE 19 28 10 15 1012.8 1008.2 0.0
05/11:30am 31.1 27.4 9.3 26 12.6 ENE 19 30 10 16 1013.1 1008.6 0.0
05/11:00am 29.8 25.4 8.8 27 11.9 ENE 22 33 12 18 1012.8 1008.2 0.0
05/10:30am 29.7 26.1 8.2 26 12.1 ENE 17 24 9 13 1014.1 1009.5 0.0
05/10:00am 29.7 25.7 8.2 26 12.1 NE 19 24 10 13 1014.3 1009.7 0.0
05/09:30am 30.6 25.5 7.7 24 12.8 ENE 24 35 13 19 1014.3 1009.7 0.0
05/09:00am 30.4 25.6 8.7 26 12.4 E 24 35 13 19 1014.5 1009.9 0.0
05/08:30am 30.3 25.5 8.7 26 12.3 E 24 33 13 18 1014.6 1010.0 0.0
05/08:00am 28.6 23.9 7.8 27 11.6 E 22 33 12 18 1014.7 1010.2 0.0
05/07:30am 28.0 23.8 9.8 32 10.4 E 22 33 12 18 1014.4 1009.8 0.0
05/07:00am 27.1 22.6 9.9 34 9.8 ENE 24 35 13 19 1014.3 1009.7 0.0
05/06:30am 24.2 19.0 10.1 41 8.0 ENE 28 43 15 23 1014.1 1009.5 0.4
05/06:00am 23.3 19.3 10.4 44 7.3 E 22 28 12 15 1014.9 1010.4 0.4
05/05:30am 22.9 18.1 10.3 45 7.1 E 26 35 14 19 1014.2 1009.6 0.4
05/05:00am 22.8 17.6 10.3 45 7.0 ENE 28 43 15 23 1014.3 1009.7 0.4
05/04:30am 22.2 15.8 10.7 48 6.5 E 35 46 19 25 1013.9 1009.3 0.4
05/04:19am 22.1 17.1 10.9 49 6.4 E 28 46 15 25 1014.3 1009.7 0.4
05/04:00am 21.9 17.4 11.3 51 6.1 ESE 26 39 14 21 1015.0 1010.5 0.4
05/03:30am 21.8 17.4 11.8 53 5.8 ESE 26 39 14 21 1014.6 1010.0 0.4
05/03:00am 21.3 16.3 12.2 56 5.3 ESE 30 41 16 22 1013.2 1008.7 0.4
05/02:42am 21.4 15.9 12.5 57 5.2 ESE 33 52 18 28 1013.1 1008.6 0.4
05/02:30am 21.1 17.6 13.3 61 4.6 SE 24 39 13 21 1014.0 1009.4 0.4
05/02:29am 21.0 17.4 13.2 61 4.6 SE 24 35 13 19 1014.2 1009.6 0.4
05/02:19am 20.3 15.9 13.0 63 4.3 SSE 28 39 15 21 1015.2 1010.7 0.2
05/02:15am 20.8 15.6 11.7 56 5.2 SE 30 44 16 24 1014.8 1010.3 0.2
05/02:09am 23.3 17.0 9.7 42 7.6 ESE 33 50 18 27 1014.2 1009.6 0.0
05/02:00am 23.1 14.7 9.8 43 7.4 ESE 44 63 24 34 1012.4 1007.8 0.0
05/01:53am 23.1 14.9 9.8 43 7.4 ESE 43 63 23 34 1011.8 1007.3 0.0
05/01:51am 23.0 14.8 9.8 43 7.4 ESE 43 56 23 30 1012.0 1007.4 0.0
05/01:32am 22.5 14.3 10.3 46 6.9 ESE 44 67 24 36 1012.6 1008.0 0.0
05/01:30am 22.4 14.4 10.5 47 6.7 ESE 43 59 23 32 1012.7 1008.1 0.0
05/01:00am 23.2 14.1 9.9 43 7.5 SE 48 74 26 40 1013.3 1008.8 0.0
05/12:34am 22.8 16.4 10.6 46 6.9 SSE 35 61 19 33 1014.3 1009.7 0.0
05/12:30am 22.8 16.4 10.6 46 6.9 SSE 35 46 19 25 1014.8 1010.3 0.0
05/12:21am 22.8 14.8 10.6 46 6.9 SSE 43 63 23 34 1015.7 1011.1 0.0
05/12:05am 22.7 15.6 10.8 47 6.8 SE 39 57 21 31 1013.6 1009.1 0.0
05/12:00am 22.7 15.7 11.1 48 6.6 SE 39 54 21 29 1013.8 1009.2 0.0
 
Date/Time
WST
Temp
°C
App
Temp
°C
Dew
Point
°C
Rel
Hum
%
Delta-T
°C
Wind Press
QNH
hPa
Press
MSL
hPa
Rain since
9am
mm
Dir  Spd
km/h
Gust
km/h
Spd
kts
Gust
kts
04/11:30pm 22.9 15.1 11.0 47 6.8 SE 43 61 23 33 1014.1 1009.5 0.0
04/11:00pm 23.4 16.6 10.8 45 7.2 SSE 37 59 20 32 1014.7 1010.2 0.0
04/10:32pm 24.0 17.7 11.0 44 7.5 SSE 35 56 19 30 1015.3 1010.8 0.0
04/10:30pm 24.1 17.7 10.7 43 7.7 SSE 35 52 19 28 1015.4 1010.9 0.0
04/10:00pm 25.0 20.0 10.8 41 8.2 S 28 39 15 21 1016.0 1011.4 0.0
04/09:30pm 26.4 20.2 9.3 34 9.6 SSE 32 46 17 25 1015.3 1010.8 0.0
04/09:00pm 27.1 20.1 8.5 31 10.4 SSE 35 57 19 31 1014.5 1009.9 0.0
04/08:47pm 27.3 20.9 8.7 31 10.4 SSE 32 50 17 27 1014.6 1010.0 0.0
04/08:30pm 27.8 20.7 8.1 29 11.0 SSE 35 48 19 26 1014.2 1009.6 0.0
04/08:00pm 28.4 21.7 8.1 28 11.3 SSE 33 52 18 28 1014.4 1009.8 0.0
04/07:30pm 29.3 22.9 8.4 27 11.8 SSE 32 50 17 27 1014.1 1009.5 0.0
04/07:15pm 29.7 23.2 8.2 26 12.1 SSE 32 50 17 27 1013.8 1009.2 0.0
04/07:00pm 30.2 23.7 8.0 25 12.5 SSE 32 43 17 23 1013.3 1008.8 0.0
04/06:30pm 30.8 24.6 7.9 24 12.9 SSE 30 43 16 23 1013.1 1008.6 0.0
04/06:11pm 31.5 24.9 7.9 23 13.3 SSE 32 50 17 27 1012.7 1008.1 0.0
04/06:00pm 31.8 25.1 8.1 23 13.5 SSE 33 50 18 27 1012.5 1007.9 0.0
04/05:30pm 33.3 26.2 8.0 21 14.4 SSE 35 52 19 28 1011.8 1007.3 0.0
04/05:13pm 34.6 28.7 7.6 19 15.4 SSE 28 46 15 25 1011.3 1006.7 0.0
04/05:00pm 35.0 28.2 7.9 19 15.6 SE 33 46 18 25 1010.9 1006.3 0.0
04/04:52pm 35.3 29.4 7.4 18 15.9 SE 28 46 15 25 1010.9 1006.3 0.0
04/04:30pm 38.9 35.7 3.1 11 19.5 WSW 9 19 5 10 1010.5 1005.9 0.0
04/04:00pm 38.8 35.2 3.1 11 19.4 SSW 11 15 6 8 1010.5 1005.9 0.0
04/03:30pm 39.0 36.2 3.2 11 19.5 W 7 15 4 8 1010.7 1006.1 0.0
04/03:00pm 38.4 35.0 4.0 12 18.9 SSE 11 19 6 10 1010.8 1006.2 0.0
04/02:30pm 38.0 34.2 3.7 12 18.7 NNW 13 24 7 13 1011.2 1006.6 0.0
04/02:00pm 38.5 34.7 4.1 12 19.0 NNE 13 19 7 10 1011.5 1006.9 0.0
04/01:30pm 38.4 35.6 5.1 13 18.6 N 9 17 5 9 1011.8 1007.3 0.0
04/01:00pm 37.8 35.7 5.7 14 18.1 WNW 6 13 3 7 1012.4 1007.8 0.0
04/12:30pm 38.0 34.6 5.9 14 18.1 N 13 19 7 10 1013.0 1008.4 0.0
04/12:00pm 37.1 33.4 6.2 15 17.5 SE 15 24 8 13 1013.4 1008.9 0.0
04/11:30am 36.1 32.6 7.2 17 16.5 ESE 15 24 8 13 1014.1 1009.5 0.0
04/11:00am 35.5 31.1 9.1 20 15.5 SE 22 32 12 17 1014.6 1010.0 0.0
04/10:30am 34.4 29.4 9.6 22 14.6 SE 26 35 14 19 1015.1 1010.6 0.0
04/10:00am 33.8 29.2 11.0 25 13.6 SSE 26 35 14 19 1015.6 1011.0 0.0
04/09:30am 34.0 29.7 7.9 20 14.9 SE 20 28 11 15 1015.8 1011.2 0.0
04/09:00am 33.7 29.5 7.6 20 14.8 SE 19 26 10 14 1016.1 1011.5 0.0
04/08:30am 32.1 27.6 8.4 23 13.5 SSE 22 30 12 16 1016.3 1011.8 0.0
04/08:00am 30.9 26.8 8.6 25 12.7 SE 20 30 11 16 1016.5 1012.0 0.0
04/07:30am 29.9 25.5 8.9 27 12.0 SE 22 30 12 16 1016.4 1011.9 0.0
04/07:00am 28.6 23.8 8.8 29 11.2 ESE 24 30 13 16 1016.3 1011.8 0.0
04/06:30am 27.6 23.2 9.0 31 10.5 SE 22 32 12 17 1016.3 1011.8 0.0
04/06:00am 25.8 23.2 9.2 35 9.3 SE 13 20 7 11 1016.2 1011.7 0.0
04/05:30am 24.2 20.7 8.6 37 8.6 SE 17 24 9 13 1015.7 1011.1 0.0
04/05:00am 24.1 21.0 8.9 38 8.4 ESE 15 20 8 11 1015.6 1011.0 0.0
04/04:30am 23.5 20.0 8.8 39 8.1 SE 17 22 9 12 1015.0 1010.5 0.0
04/04:00am 23.4 20.7 9.0 40 8.0 SE 13 17 7 9 1014.8 1010.3 0.0
04/03:30am 23.3 22.0 9.3 41 7.8 SE 6 9 3 5 1014.5 1009.9 0.0
04/03:00am 24.2 22.8 9.4 39 8.3 SE 7 11 4 6 1014.2 1009.6 0.0
04/02:30am 25.2 24.4 9.5 37 8.8 SE 4 11 2 6 1013.9 1009.3 0.0

Other formats

Comma delimited format used in spreadsheet applications
http://www.bom.gov.au/fwo/IDW60801/IDW60801.94461.axf

JavaScript Object Notation format (JSON) in row-major order
http://www.bom.gov.au/fwo/IDW60801/IDW60801.94461.json

Data quality

Most of these data are generated automatically and are frequently updated. Quality checks on data are not normally performed. It is possible for incorrect values to appear. Refer to information at About Latest Weather Observations and please check the disclaimer before using these data.